createdAt,value
2023-04-10T00:00:04.707Z,217.36
2023-04-10T00:02:40.327Z,210.74
2023-04-10T00:05:13.624Z,219.94
2023-04-10T00:07:46.150Z,214.68
2023-04-10T00:10:18.452Z,211.69
2023-04-10T00:12:51.419Z,214.75
2023-04-10T00:15:23.704Z,205.19
2023-04-10T00:17:58.573Z,207.73
2023-04-10T00:20:30.969Z,206.69
2023-04-10T00:23:03.275Z,203.63
2023-04-10T00:25:35.618Z,207.97
2023-04-10T00:28:07.958Z,204.12
2023-04-10T00:30:40.214Z,201.04
2023-04-10T00:33:14.958Z,192.96
2023-04-10T00:35:47.205Z,191.73
2023-04-10T00:38:19.739Z,188.90
2023-04-10T00:40:52.005Z,184.55
2023-04-10T00:43:24.555Z,183.97
2023-04-10T00:45:57.044Z,180.72
2023-04-10T00:48:32.295Z,180.53
2023-04-10T00:51:06.234Z,183.82
2023-04-10T00:53:38.646Z,177.75
2023-04-10T00:56:13.169Z,170.32
2023-04-10T00:58:45.529Z,161.21
2023-04-10T01:01:18.034Z,161.87
2023-04-10T01:03:54.102Z,149.91
2023-04-10T01:06:38.662Z,145.91
2023-04-10T01:09:21.528Z,143.32
2023-04-10T01:11:59.621Z,139.74
2023-04-10T01:14:41.921Z,142.65
2023-04-10T01:17:22.054Z,136.04
2023-04-10T01:20:11.017Z,135.61
2023-04-10T01:23:10.733Z,130.84
2023-04-10T01:25:51.692Z,133.44
2023-04-10T01:29:00.729Z,127.18
2023-04-10T01:31:41.427Z,126.24
2023-04-10T01:34:20.215Z,122.46
2023-04-10T01:36:57.559Z,120.68
2023-04-10T01:39:32.020Z,122.33
2023-04-10T01:42:05.899Z,125.30
2023-04-10T01:44:45.713Z,118.65
2023-04-10T01:47:20.859Z,116.46
2023-04-10T01:49:55.535Z,117.90
2023-04-10T01:52:29.176Z,116.10
2023-04-10T01:55:04.892Z,116.26
2023-04-10T01:57:38.848Z,110.96
2023-04-10T02:00:15.295Z,114.29
2023-04-10T02:02:48.724Z,113.88
2023-04-10T02:05:22.326Z,110.94
2023-04-10T02:08:07.052Z,114.42
2023-04-10T02:10:51.822Z,115.09
2023-04-10T02:13:28.499Z,109.14
2023-04-10T02:16:08.019Z,112.30
2023-04-10T02:18:42.515Z,109.25
2023-04-10T02:21:14.851Z,107.54
2023-04-10T02:23:47.306Z,110.96
2023-04-10T02:26:19.499Z,109.29
2023-04-10T02:28:51.680Z,110.00
2023-04-10T02:31:28.168Z,109.62
2023-04-10T02:34:00.509Z,107.01
2023-04-10T02:36:32.903Z,105.69
2023-04-10T02:39:05.129Z,104.79
2023-04-10T02:41:37.472Z,110.55
2023-04-10T02:44:09.687Z,106.81
2023-04-10T02:46:44.622Z,106.71
2023-04-10T02:49:16.891Z,108.07
2023-04-10T02:51:49.156Z,106.82
2023-04-10T02:54:21.876Z,106.35
2023-04-10T02:56:54.092Z,107.33
2023-04-10T02:59:26.675Z,109.99
2023-04-10T03:02:01.628Z,107.46
2023-04-10T03:04:36.905Z,107.39
2023-04-10T03:07:09.191Z,108.66
2023-04-10T03:09:41.439Z,104.86
2023-04-10T03:12:13.687Z,104.06
2023-04-10T03:14:45.943Z,107.47
2023-04-10T03:17:20.833Z,104.87
2023-04-10T03:19:53.024Z,109.12
2023-04-10T03:22:25.194Z,107.44
2023-04-10T03:24:57.876Z,110.19
2023-04-10T03:27:32.385Z,108.56
2023-04-10T03:30:05.495Z,106.96
2023-04-10T03:32:42.491Z,107.27
2023-04-10T03:35:14.904Z,110.21
2023-04-10T03:37:47.112Z,108.90
2023-04-10T03:40:19.641Z,110.19
2023-04-10T03:42:51.883Z,106.76
2023-04-10T03:45:24.441Z,106.85
2023-04-10T03:47:59.356Z,110.01
2023-04-10T03:50:31.765Z,110.88
2023-04-10T03:53:04.966Z,108.44
2023-04-10T03:55:38.719Z,109.42
2023-04-10T03:58:11.006Z,106.50
2023-04-10T04:00:43.290Z,108.96
2023-04-10T04:03:18.425Z,107.79
2023-04-10T04:05:51.147Z,111.94
2023-04-10T04:08:23.347Z,110.21
2023-04-10T04:10:55.557Z,111.01
2023-04-10T04:13:28.136Z,108.43
2023-04-10T04:16:00.401Z,108.61
2023-04-10T04:18:35.257Z,109.66
2023-04-10T04:21:08.590Z,109.91
2023-04-10T04:23:40.906Z,113.44
2023-04-10T04:26:13.191Z,113.04
2023-04-10T04:28:45.516Z,115.82
2023-04-10T04:31:17.771Z,109.89
2023-04-10T04:33:52.897Z,108.94
2023-04-10T04:36:25.329Z,111.79
2023-04-10T04:38:57.776Z,109.84
2023-04-10T04:41:30.909Z,114.09
2023-04-10T04:44:04.003Z,114.66
2023-04-10T04:46:36.419Z,115.11
2023-04-10T04:49:11.182Z,115.19
2023-04-10T04:51:43.422Z,119.10
2023-04-10T04:54:15.634Z,116.24
2023-04-10T04:56:47.822Z,114.06
2023-04-10T04:59:20.093Z,119.09
2023-04-10T05:01:52.404Z,119.03
2023-04-10T05:04:27.633Z,121.69
2023-04-10T05:06:59.944Z,120.49
2023-04-10T05:09:32.152Z,116.88
2023-04-10T05:12:04.414Z,116.89
2023-04-10T05:14:36.745Z,119.46
2023-04-10T05:17:08.965Z,117.11
2023-04-10T05:19:43.823Z,120.51
2023-04-10T05:22:18.533Z,117.77
2023-04-10T05:24:50.958Z,118.07
2023-04-10T05:27:23.597Z,115.94
2023-04-10T05:29:55.894Z,120.19
2023-04-10T05:32:28.173Z,116.54
2023-04-10T05:35:03.025Z,118.59
2023-04-10T05:37:35.263Z,117.52
2023-04-10T05:40:07.934Z,115.41
2023-04-10T05:42:40.179Z,113.89
2023-04-10T05:45:15.149Z,114.84
2023-04-10T05:47:47.551Z,112.55
2023-04-10T05:50:23.193Z,115.74
2023-04-10T05:52:56.512Z,114.11
2023-04-10T05:55:28.823Z,111.71
2023-04-10T05:58:01.015Z,111.26
2023-04-10T06:00:33.244Z,110.44
2023-04-10T06:03:05.550Z,111.94
2023-04-10T06:05:41.471Z,114.90
2023-04-10T06:08:13.650Z,113.50
2023-04-10T06:10:46.329Z,112.40
2023-04-10T06:13:18.682Z,114.87
2023-04-10T06:15:51.027Z,110.71
2023-04-10T06:18:23.365Z,108.74
2023-04-10T06:21:00.555Z,108.24
2023-04-10T06:23:32.937Z,113.33
2023-04-10T06:26:06.232Z,111.37
2023-04-10T06:28:38.446Z,110.91
2023-04-10T06:31:11.618Z,109.24
2023-04-10T06:33:43.904Z,112.54
2023-04-10T06:36:18.809Z,111.66
2023-04-10T06:38:51.222Z,108.76
2023-04-10T06:41:23.640Z,109.30
2023-04-10T06:43:56.521Z,107.00
2023-04-10T06:46:28.838Z,109.19
2023-04-10T06:49:01.066Z,108.86
2023-04-10T06:51:36.088Z,109.39
2023-04-10T06:54:08.394Z,112.44
2023-04-10T06:56:40.800Z,109.56
2023-04-10T06:59:13.156Z,106.23
2023-04-10T07:01:45.557Z,107.94
2023-04-10T07:04:17.842Z,111.11
2023-04-10T07:06:52.669Z,105.54
2023-04-10T07:09:24.907Z,105.59
2023-04-10T07:11:57.192Z,104.29
2023-04-10T07:14:29.473Z,101.30
2023-04-10T07:17:01.738Z,102.99
2023-04-10T07:19:34.170Z,103.05
2023-04-10T07:22:08.948Z,100.31
2023-04-10T07:24:41.160Z,100.34
2023-04-10T07:27:13.803Z,99.46
2023-04-10T07:29:46.083Z,103.66
2023-04-10T07:32:18.393Z,101.20
2023-04-10T07:34:50.687Z,104.39
2023-04-10T07:37:25.483Z,103.60
2023-04-10T07:39:57.720Z,104.61
2023-04-10T07:42:35.839Z,103.54
2023-04-10T07:45:08.591Z,108.01
2023-04-10T07:47:41.024Z,105.44
2023-04-10T07:50:13.925Z,108.20
2023-04-10T07:52:48.726Z,110.48
2023-04-10T07:55:21.201Z,106.81
2023-04-10T07:57:53.433Z,107.71
2023-04-10T08:00:25.976Z,108.66
2023-04-10T08:02:58.463Z,108.96
2023-04-10T08:05:31.213Z,113.13
2023-04-10T08:08:06.250Z,113.36
2023-04-10T08:10:40.621Z,110.61
2023-04-10T08:13:12.872Z,110.13
2023-04-10T08:15:45.233Z,111.72
2023-04-10T08:18:17.484Z,111.26
2023-04-10T08:20:49.690Z,111.22
2023-04-10T08:23:24.469Z,114.42
2023-04-10T08:25:56.688Z,109.04
2023-04-10T08:28:28.871Z,112.89
2023-04-10T08:31:01.106Z,110.81
2023-04-10T08:33:34.408Z,114.19
2023-04-10T08:36:06.767Z,113.26
2023-04-10T08:38:41.557Z,114.02
2023-04-10T08:41:15.688Z,109.64
2023-04-10T08:43:50.073Z,111.72
2023-04-10T08:46:22.639Z,112.79
2023-04-10T08:49:02.732Z,111.51
2023-04-10T08:51:43.104Z,112.91
2023-04-10T08:54:25.167Z,116.74
2023-04-10T08:57:01.605Z,115.03
2023-04-10T08:59:34.440Z,116.69
2023-04-10T09:02:07.505Z,120.40
2023-04-10T09:04:40.528Z,118.27
2023-04-10T09:07:12.882Z,114.14
2023-04-10T09:09:47.926Z,115.43
2023-04-10T09:12:21.342Z,111.49
2023-04-10T09:14:53.699Z,117.24
2023-04-10T09:17:27.673Z,111.44
2023-04-10T09:20:00.509Z,111.60
2023-04-10T09:22:37.863Z,112.64
2023-04-10T09:25:34.145Z,114.76
2023-04-10T09:28:11.433Z,125.96
2023-04-10T09:30:46.488Z,136.21
2023-04-10T09:33:27.719Z,129.88
2023-04-10T09:36:04.379Z,128.69
2023-04-10T09:38:36.718Z,117.11
2023-04-10T09:41:14.450Z,128.21
2023-04-10T09:43:47.169Z,120.95
2023-04-10T09:46:31.463Z,124.67
2023-04-10T09:49:05.474Z,131.07
2023-04-10T09:51:39.809Z,118.12
2023-04-10T09:54:12.029Z,117.51
2023-04-10T09:56:51.734Z,121.45
2023-04-10T09:59:24.022Z,114.03
2023-04-10T10:01:56.498Z,110.97
2023-04-10T10:04:30.775Z,109.10
2023-04-10T10:07:03.431Z,108.48
2023-04-10T10:09:36.391Z,110.27
2023-04-10T10:12:14.782Z,111.71
2023-04-10T10:14:54.144Z,105.31
2023-04-10T10:17:33.867Z,105.47
2023-04-10T10:20:11.419Z,106.89
2023-04-10T10:22:45.263Z,103.14
2023-04-10T10:25:18.074Z,106.60
2023-04-10T10:27:56.214Z,109.08
2023-04-10T10:30:30.349Z,104.01
2023-04-10T10:33:03.820Z,101.79
2023-04-10T10:35:36.447Z,106.73
2023-04-10T10:38:09.831Z,105.73
2023-04-10T10:40:53.158Z,98.77
2023-04-10T10:43:39.649Z,96.26
2023-04-10T10:46:16.698Z,96.74
2023-04-10T10:49:00.932Z,98.97
2023-04-10T10:51:51.696Z,98.01
2023-04-10T10:54:47.155Z,96.34
2023-04-10T10:57:50.315Z,94.65
2023-04-10T11:00:26.967Z,94.56
2023-04-10T11:03:31.826Z,93.39
2023-04-10T11:06:07.295Z,95.13
2023-04-10T11:08:47.826Z,96.61
2023-04-10T11:11:23.620Z,91.27
2023-04-10T11:14:21.612Z,90.89
2023-04-10T11:16:56.506Z,92.01
2023-04-10T11:19:28.788Z,92.96
2023-04-10T11:22:09.556Z,91.73
2023-04-10T11:25:02.063Z,89.96
2023-04-10T11:27:45.831Z,91.89
2023-04-10T11:30:37.739Z,98.66
2023-04-10T11:33:12.597Z,90.70
2023-04-10T11:35:45.139Z,89.96
2023-04-10T11:38:20.081Z,91.48
2023-04-10T11:41:04.593Z,95.90
2023-04-10T11:43:37.933Z,97.60
2023-04-10T11:46:11.474Z,93.30
2023-04-10T11:48:46.442Z,90.52
2023-04-10T11:51:19.174Z,94.91
2023-04-10T11:53:51.366Z,91.75
2023-04-10T11:56:25.132Z,93.99
2023-04-10T11:58:57.832Z,91.04
2023-04-10T12:01:30.192Z,89.63
2023-04-10T12:04:07.976Z,88.39
2023-04-10T12:06:40.545Z,93.56
2023-04-10T12:09:18.216Z,87.10
2023-04-10T12:11:54.591Z,88.16
2023-04-10T12:14:27.971Z,84.63
2023-04-10T12:17:01.325Z,80.04
2023-04-10T12:19:37.852Z,84.26
2023-04-10T12:22:10.223Z,76.84
2023-04-10T12:24:47.656Z,74.11
2023-04-10T12:27:23.855Z,71.83
2023-04-10T12:29:59.643Z,69.49
2023-04-10T12:32:31.941Z,67.81
2023-04-10T12:35:06.743Z,67.51
2023-04-10T12:37:52.424Z,68.16
2023-04-10T12:40:25.112Z,66.78
2023-04-10T12:42:57.671Z,63.57
2023-04-10T12:45:47.431Z,65.60
2023-04-10T12:48:28.568Z,62.39
2023-04-10T12:51:04.219Z,62.05
2023-04-10T12:53:47.691Z,61.58
2023-04-10T12:56:28.633Z,59.76
2023-04-10T12:59:11.141Z,58.61
2023-04-10T13:01:43.747Z,56.66
2023-04-10T13:04:16.162Z,54.75
2023-04-10T13:06:53.047Z,54.77
2023-04-10T13:09:25.368Z,55.16
2023-04-10T13:11:57.865Z,55.24
2023-04-10T13:14:30.117Z,56.32
2023-04-10T13:17:02.365Z,56.06
2023-04-10T13:19:34.680Z,56.01
2023-04-10T13:22:09.583Z,53.28
2023-04-10T13:24:41.891Z,52.32
2023-04-10T13:27:14.711Z,53.86
2023-04-10T13:29:47.806Z,52.02
2023-04-10T13:32:20.003Z,53.81
2023-04-10T13:34:52.550Z,53.63
2023-04-10T13:37:27.415Z,69.48
2023-04-10T13:39:59.650Z,54.83
2023-04-10T13:42:31.816Z,55.39
2023-04-10T13:45:04.294Z,55.56
2023-04-10T13:47:36.576Z,59.57
2023-04-10T13:50:09.552Z,59.59
2023-04-10T13:52:44.422Z,58.96
2023-04-10T13:55:16.943Z,57.20
2023-04-10T13:57:49.094Z,59.34
2023-04-10T14:00:22.510Z,60.87
2023-04-10T14:02:54.927Z,60.26
2023-04-10T14:05:27.229Z,61.94
2023-04-10T14:08:02.030Z,65.19
2023-04-10T14:10:34.236Z,62.11
2023-04-10T14:13:06.478Z,62.44
2023-04-10T14:15:38.680Z,61.51
2023-04-10T14:18:11.018Z,61.44
2023-04-10T14:20:44.530Z,61.41
2023-04-10T14:23:19.789Z,61.39
2023-04-10T14:25:54.429Z,65.44
2023-04-10T14:28:26.656Z,64.29
2023-04-10T14:30:58.853Z,60.61
2023-04-10T14:33:31.209Z,59.31
2023-04-10T14:36:03.620Z,65.86
2023-04-10T14:38:38.708Z,65.81
2023-04-10T14:41:11.587Z,66.94
2023-04-10T14:43:44.769Z,70.25
2023-04-10T14:46:17.033Z,66.69
2023-04-10T14:48:49.313Z,74.44
2023-04-10T14:51:21.705Z,74.36
2023-04-10T14:53:56.601Z,69.58
2023-04-10T14:56:28.855Z,67.69
2023-04-10T14:59:01.070Z,63.38
2023-04-10T15:01:33.280Z,61.34
2023-04-10T15:04:05.660Z,62.24
2023-04-10T15:06:38.324Z,59.74
2023-04-10T15:09:13.162Z,63.51
2023-04-10T15:11:45.349Z,59.99
2023-04-10T15:14:17.647Z,63.36
2023-04-10T15:16:51.955Z,62.96
2023-04-10T15:19:25.728Z,68.99
2023-04-10T15:21:58.139Z,71.81
2023-04-10T15:24:43.269Z,69.14
2023-04-10T15:27:23.821Z,69.28
2023-04-10T15:29:56.051Z,66.19
2023-04-10T15:32:28.450Z,70.67
2023-04-10T15:35:00.687Z,66.81
2023-04-10T15:37:32.890Z,69.71
2023-04-10T15:40:08.243Z,72.51
2023-04-10T15:42:41.070Z,69.72
2023-04-10T15:45:13.477Z,67.36
2023-04-10T15:47:45.676Z,62.45
2023-04-10T15:50:18.082Z,62.12
2023-04-10T15:52:50.255Z,61.49
2023-04-10T15:55:25.139Z,59.28
2023-04-10T15:57:57.339Z,60.19
2023-04-10T16:00:29.766Z,66.62
2023-04-10T16:03:02.101Z,65.10
2023-04-10T16:05:34.398Z,65.76
2023-04-10T16:08:07.330Z,64.06
2023-04-10T16:10:42.099Z,65.61
2023-04-10T16:13:14.586Z,66.18
2023-04-10T16:15:47.369Z,63.89
2023-04-10T16:18:19.617Z,65.96
2023-04-10T16:20:51.791Z,65.23
2023-04-10T16:23:24.048Z,67.66
2023-04-10T16:25:58.782Z,66.09
2023-04-10T16:28:31.696Z,70.86
2023-04-10T16:31:03.995Z,71.21
2023-04-10T16:33:36.180Z,72.76
2023-04-10T16:36:09.346Z,70.06
2023-04-10T16:38:41.632Z,71.45
2023-04-10T16:41:17.770Z,76.01
2023-04-10T16:43:50.054Z,75.14
2023-04-10T16:46:22.292Z,76.43
2023-04-10T16:48:54.624Z,79.31
2023-04-10T16:51:27.648Z,80.94
2023-04-10T16:53:59.906Z,82.84
2023-04-10T16:56:35.684Z,85.43
2023-04-10T16:59:07.872Z,90.40
2023-04-10T17:01:40.866Z,88.84
2023-04-10T17:04:13.704Z,85.87
2023-04-10T17:06:46.073Z,91.76
2023-04-10T17:09:18.275Z,87.52
2023-04-10T17:11:53.502Z,87.59
2023-04-10T17:14:25.801Z,72.21
2023-04-10T17:16:58.079Z,55.01
2023-04-10T17:19:30.656Z,57.59
2023-04-10T17:22:03.031Z,71.20
2023-04-10T17:24:35.253Z,77.44
2023-04-10T17:27:10.184Z,76.96
2023-04-10T17:29:42.967Z,77.94
2023-04-10T17:32:15.159Z,75.17
2023-04-10T17:34:47.335Z,71.47
2023-04-10T17:37:19.977Z,71.56
2023-04-10T17:39:54.682Z,69.53
2023-04-10T17:42:29.481Z,67.20
2023-04-10T17:45:02.142Z,67.51
2023-04-10T17:47:34.351Z,62.33
2023-04-10T17:50:06.609Z,56.59
2023-04-10T17:52:39.088Z,55.93
2023-04-10T17:55:12.450Z,51.19
2023-04-10T17:57:47.220Z,50.56
2023-04-10T18:00:20.997Z,53.35
2023-04-10T18:02:58.391Z,49.59
2023-04-10T18:05:30.937Z,50.88
2023-04-10T18:08:03.191Z,52.56
2023-04-10T18:10:35.399Z,56.44
2023-04-10T18:13:10.813Z,55.44
2023-04-10T18:15:43.109Z,55.73
2023-04-10T18:18:15.278Z,57.45
2023-04-10T18:20:47.536Z,54.55
2023-04-10T18:23:19.681Z,55.29
2023-04-10T18:25:57.014Z,61.66
2023-04-10T18:28:31.851Z,59.06
2023-04-10T18:31:04.921Z,60.91
2023-04-10T18:33:37.246Z,60.51
2023-04-10T18:36:11.039Z,54.91
2023-04-10T18:38:44.098Z,55.16
2023-04-10T18:41:16.451Z,53.86
2023-04-10T18:43:57.816Z,54.21
2023-04-10T18:46:36.263Z,49.89
2023-04-10T18:49:08.486Z,51.74
2023-04-10T18:51:40.914Z,50.91
2023-04-10T18:54:13.109Z,47.96
2023-04-10T18:56:45.290Z,45.84
2023-04-10T18:59:20.044Z,47.23
2023-04-10T19:01:52.396Z,48.19
2023-04-10T19:04:24.782Z,45.11
2023-04-10T19:06:57.024Z,47.11
2023-04-10T19:09:29.246Z,43.35
2023-04-10T19:12:01.651Z,45.53
2023-04-10T19:14:39.685Z,44.44
2023-04-10T19:17:11.859Z,43.26
2023-04-10T19:19:44.767Z,42.78
2023-04-10T19:22:17.350Z,41.35
2023-04-10T19:24:49.600Z,43.24
2023-04-10T19:27:21.898Z,43.18
2023-04-10T19:29:56.657Z,43.25
2023-04-10T19:32:28.845Z,45.62
2023-04-10T19:35:01.008Z,44.14
2023-04-10T19:37:34.711Z,45.31
2023-04-10T19:40:07.191Z,42.27
2023-04-10T19:42:39.442Z,42.06
2023-04-10T19:45:16.054Z,45.38
2023-04-10T19:47:48.378Z,46.23
2023-04-10T19:50:20.639Z,45.53
2023-04-10T19:52:52.829Z,46.09
2023-04-10T19:55:25.204Z,47.21
2023-04-10T19:57:57.556Z,47.21
2023-04-10T20:00:32.382Z,53.12
2023-04-10T20:03:04.845Z,51.97
2023-04-10T20:05:37.118Z,48.81
2023-04-10T20:08:09.514Z,48.77
2023-04-10T20:10:41.671Z,48.57
2023-04-10T20:13:13.858Z,52.41
2023-04-10T20:15:49.307Z,49.94
2023-04-10T20:18:21.566Z,51.67
2023-04-10T20:20:53.733Z,47.89
2023-04-10T20:23:25.855Z,50.77
2023-04-10T20:25:58.124Z,47.19
2023-04-10T20:28:30.356Z,49.12
2023-04-10T20:31:05.358Z,48.34
2023-04-10T20:33:37.811Z,47.56
2023-04-10T20:36:10.622Z,49.12
2023-04-10T20:38:42.923Z,49.01
2023-04-10T20:41:15.198Z,49.59
2023-04-10T20:43:47.401Z,49.16
2023-04-10T20:46:22.243Z,49.34
2023-04-10T20:48:55.371Z,48.16
2023-04-10T20:51:28.768Z,48.64
2023-04-10T20:54:01.012Z,47.88
2023-04-10T20:56:42.682Z,46.98
2023-04-10T20:59:16.333Z,48.24
2023-04-10T21:01:51.347Z,47.19
2023-04-10T21:04:23.643Z,49.59
2023-04-10T21:06:56.584Z,48.80
2023-04-10T21:09:28.851Z,46.99
2023-04-10T21:12:01.028Z,48.22
2023-04-10T21:14:33.242Z,47.25
2023-04-10T21:17:08.114Z,47.81
2023-04-10T21:19:40.286Z,47.58
2023-04-10T21:22:12.969Z,47.61
2023-04-10T21:24:45.146Z,49.38
2023-04-10T21:27:17.373Z,49.70
2023-04-10T21:29:49.681Z,49.49
2023-04-10T21:32:24.988Z,50.83
2023-04-10T21:34:57.241Z,47.91
2023-04-10T21:37:29.409Z,50.41
2023-04-10T21:40:01.683Z,48.56
2023-04-10T21:42:33.986Z,47.09
2023-04-10T21:45:06.298Z,47.45
2023-04-10T21:47:41.070Z,47.54
2023-04-10T21:50:14.197Z,46.31
2023-04-10T21:52:46.367Z,47.34
2023-04-10T21:55:19.237Z,46.88
2023-04-10T21:57:51.352Z,46.94
2023-04-10T22:00:23.596Z,48.19
2023-04-10T22:02:58.541Z,47.86
2023-04-10T22:05:31.962Z,45.43
2023-04-10T22:08:04.148Z,46.89
2023-04-10T22:10:36.591Z,46.79
2023-04-10T22:13:10.348Z,44.88
2023-04-10T22:15:44.612Z,43.76
2023-04-10T22:18:19.424Z,45.55
2023-04-10T22:20:51.650Z,44.24
2023-04-10T22:23:24.137Z,44.34
2023-04-10T22:25:56.327Z,39.79
2023-04-10T22:28:28.577Z,27.69
2023-04-10T22:31:01.019Z,21.12
2023-04-10T22:33:37.678Z,16.58
2023-04-10T22:36:10.738Z,15.45
2023-04-10T22:41:14.924Z,13.64
2023-04-10T22:43:47.089Z,14.52
2023-04-10T22:46:19.265Z,15.69
2023-04-10T22:48:54.252Z,14.01
2023-04-10T22:51:27.512Z,13.77
2023-04-10T22:53:59.831Z,13.72
2023-04-10T22:56:32.063Z,13.57
2023-04-10T22:59:04.243Z,13.33
2023-04-10T23:01:36.737Z,13.11
2023-04-10T23:04:11.693Z,12.78
2023-04-10T23:06:44.162Z,13.60
2023-04-10T23:09:16.745Z,12.35
2023-04-10T23:11:49.010Z,12.25
2023-04-10T23:14:21.255Z,12.51
2023-04-10T23:16:53.540Z,11.56
2023-04-10T23:19:28.450Z,11.80
2023-04-10T23:22:00.774Z,13.28
2023-04-10T23:24:32.928Z,12.69
2023-04-10T23:27:05.182Z,11.52
2023-04-10T23:29:37.419Z,12.56
2023-04-10T23:32:09.933Z,13.62
2023-04-10T23:34:44.737Z,13.66
2023-04-10T23:37:16.961Z,14.26
2023-04-10T23:39:49.199Z,16.13
2023-04-10T23:42:21.404Z,17.00
2023-04-10T23:44:53.572Z,17.46
2023-04-10T23:47:25.729Z,17.57
2023-04-10T23:50:01.431Z,20.16
2023-04-10T23:52:33.705Z,20.69
2023-04-10T23:55:05.869Z,21.13
2023-04-10T23:57:38.008Z,21.61
